Time;durP1;ratioP1;P1;durP2;ratioP2;P2;SDS_P1;SDS_P2;PMS_P1;PMS_P2;Temp;Humidity;BMP_temperature;BMP_pressure;BME280_temperature;BME280_humidity;BME280_pressure;Samples;Min_cycle;Max_cycle;Signal;HPM_P1;HPM_P2
2022/12/19 00:00:48;;;;;;;77.90;28.05;;;-0.50;70.80;;;;;;5045936;28;20057;-64
2022/12/19 00:03:14;;;;;;;74.65;26.70;;;-0.60;70.60;;;;;;5045705;28;20085;-64
2022/12/19 00:05:40;;;;;;;79.13;27.27;;;-0.60;70.60;;;;;;5051082;28;20025;-64
2022/12/19 00:08:13;;;;;;;79.78;28.83;;;-0.40;70.70;;;;;;5039733;28;20048;-63
2022/12/19 00:10:39;;;;;;;78.55;28.98;;;-0.60;70.70;;;;;;5059193;28;20029;-64
2022/12/19 00:13:04;;;;;;;83.75;28.50;;;-0.50;70.70;;;;;;5050993;28;20024;-64
2022/12/19 00:15:33;;;;;;;81.80;28.00;;;-0.40;70.80;;;;;;5044015;28;20041;-64
2022/12/19 00:17:59;;;;;;;77.40;26.95;;;-0.30;70.80;;;;;;5041488;28;20451;-64
2022/12/19 00:20:25;;;;;;;89.47;29.67;;;-0.60;70.70;;;;;;5044021;28;20033;-63
2022/12/19 00:22:50;;;;;;;92.80;28.55;;;-0.60;70.60;;;;;;5043229;28;20448;-63
2022/12/19 00:25:16;;;;;;;88.10;29.85;;;-0.30;70.90;;;;;;5038451;28;20046;-64
2022/12/19 00:27:41;;;;;;;84.15;28.05;;;-0.60;70.50;;;;;;5037135;28;20025;-64
2022/12/19 00:30:08;;;;;;;83.68;28.38;;;-0.40;70.60;;;;;;5051816;28;20030;-64
2022/12/19 00:32:33;;;;;;;80.07;27.15;;;-0.60;70.50;;;;;;5040056;28;20068;-63
2022/12/19 00:34:59;;;;;;;94.82;29.90;;;-0.60;70.40;;;;;;5047083;28;20029;-63
2022/12/19 00:37:25;;;;;;;84.30;29.10;;;-0.60;70.40;;;;;;5040665;28;20080;-63
2022/12/19 00:39:50;;;;;;;83.63;30.20;;;-0.60;70.40;;;;;;5040485;28;20053;-64
2022/12/19 00:42:16;;;;;;;86.53;28.35;;;-0.60;70.50;;;;;;5045229;28;20079;-64
2022/12/19 00:44:41;;;;;;;86.40;28.90;;;-0.60;70.60;;;;;;5047542;28;20017;-64
2022/12/19 00:47:07;;;;;;;92.75;29.92;;;-0.60;70.60;;;;;;5043480;28;20032;-64
2022/12/19 00:49:33;;;;;;;89.05;28.75;;;-0.60;70.60;;;;;;5049621;28;20059;-64
2022/12/19 00:51:58;;;;;;;82.13;28.92;;;-0.60;70.60;;;;;;5040535;28;20515;-64
2022/12/19 00:54:24;;;;;;;89.47;29.83;;;-0.60;70.70;;;;;;5042698;28;20077;-63
2022/12/19 00:56:50;;;;;;;82.85;28.75;;;-0.50;70.70;;;;;;5040567;28;20051;-64
2022/12/19 00:59:15;;;;;;;82.38;28.42;;;-0.20;70.90;;;;;;5044598;28;20043;-64
2022/12/19 01:01:41;;;;;;;83.43;30.17;;;-0.50;70.50;;;;;;5045594;28;20032;-63
2022/12/19 01:04:10;;;;;;;82.72;27.83;;;-0.60;70.40;;;;;;5036846;28;20060;-63
2022/12/19 01:06:36;;;;;;;77.32;27.58;;;-0.50;70.50;;;;;;5047040;28;20088;-63
2022/12/19 01:09:02;;;;;;;88.63;29.80;;;-0.50;70.50;;;;;;5042207;28;20555;-63
2022/12/19 01:14:13;;;;;;;83.57;27.08;;;-0.50;70.50;;;;;;5045665;28;20040;-64
2022/12/19 01:16:39;;;;;;;80.93;27.23;;;-0.50;70.50;;;;;;5049690;28;20196;-63
2022/12/19 01:19:04;;;;;;;76.30;27.05;;;-0.20;70.60;;;;;;5039019;28;20404;-63
2022/12/19 01:21:30;;;;;;;77.78;28.23;;;-0.50;70.30;;;;;;5046978;28;20056;-64
2022/12/19 01:23:55;;;;;;;73.07;27.23;;;-0.50;70.30;;;;;;5050821;28;20052;-64
2022/12/19 01:26:21;;;;;;;75.95;27.40;;;-0.10;70.60;;;;;;5046601;28;20029;-63
2022/12/19 01:28:47;;;;;;;78.07;28.13;;;-0.20;70.60;;;;;;5053024;28;20041;-64
2022/12/19 01:31:12;;;;;;;76.03;26.35;;;-0.50;70.50;;;;;;5042511;28;20120;-66
2022/12/19 01:33:38;;;;;;;85.97;29.23;;;-0.20;70.60;;;;;;5041705;28;20025;-64
2022/12/19 01:36:08;;;;;;;83.13;29.27;;;-0.40;70.40;;;;;;5058058;28;20037;-64
2022/12/19 01:38:35;;;;;;;76.85;27.58;;;-0.40;70.50;;;;;;5047643;28;20025;-65
2022/12/19 01:41:01;;;;;;;79.47;28.85;;;-0.40;70.40;;;;;;5037843;28;20053;-64
2022/12/19 01:43:30;;;;;;;83.82;28.77;;;-0.40;70.40;;;;;;5041574;28;20037;-64
2022/12/19 01:46:04;;;;;;;83.32;29.17;;;-0.30;70.40;;;;;;5045155;28;20032;-64
2022/12/19 01:48:35;;;;;;;85.10;30.40;;;-0.30;70.40;;;;;;5048823;28;20074;-64
2022/12/19 01:51:06;;;;;;;78.35;28.50;;;-0.30;70.20;;;;;;5039836;28;20139;-64
2022/12/19 01:53:47;;;;;;;82.18;30.30;;;-0.30;70.20;;;;;;5051406;28;20040;-64
2022/12/19 01:56:13;;;;;;;84.25;30.27;;;-0.30;70.10;;;;;;5041761;28;20041;-64
2022/12/19 01:58:45;;;;;;;83.10;26.73;;;-0.30;70.10;;;;;;5044183;28;20033;-65
2022/12/19 02:01:11;;;;;;;83.72;28.30;;;-0.30;70.10;;;;;;5052598;28;20088;-64
2022/12/19 02:03:37;;;;;;;80.70;28.95;;;-0.20;70.00;;;;;;5041226;28;20033;-63
2022/12/19 02:06:05;;;;;;;82.03;28.17;;;-0.30;70.10;;;;;;5035905;28;20014;-64
2022/12/19 02:08:31;;;;;;;77.70;28.60;;;-0.40;70.10;;;;;;5045956;28;20101;-63
2022/12/19 02:10:57;;;;;;;85.80;30.15;;;-0.40;70.10;;;;;;5035688;28;20033;-64
2022/12/19 02:13:23;;;;;;;82.25;29.35;;;-0.40;70.20;;;;;;5046673;28;20037;-64
2022/12/19 02:16:11;;;;;;;72.72;26.80;;;-0.20;70.40;;;;;;5043519;28;20396;-64
2022/12/19 02:19:02;;;;;;;80.32;28.60;;;-0.40;70.40;;;;;;5043497;28;20036;-63
2022/12/19 02:21:43;;;;;;;77.88;27.60;;;-0.40;70.40;;;;;;5039154;28;20040;-63
2022/12/19 02:24:34;;;;;;;68.35;26.20;;;-0.40;70.00;;;;;;5052918;28;20031;-63
2022/12/19 02:27:16;;;;;;;67.43;25.48;;;-0.40;70.00;;;;;;5046297;28;20057;-64
2022/12/19 02:30:04;;;;;;;71.57;25.10;;;-0.30;70.10;;;;;;5042043;28;20032;-64
2022/12/19 02:32:41;;;;;;;66.15;24.63;;;-0.40;70.20;;;;;;5043226;28;20433;-64
2022/12/19 02:35:32;;;;;;;64.18;25.00;;;-0.40;70.20;;;;;;5047503;28;20033;-64
2022/12/19 02:38:24;;;;;;;61.50;23.83;;;-0.40;70.40;;;;;;5041203;28;20502;-64
2022/12/19 02:41:12;;;;;;;57.85;22.65;;;-0.40;70.50;;;;;;5042968;28;20434;-63
2022/12/19 02:43:45;;;;;;;59.78;24.13;;;-0.30;70.50;;;;;;5042118;28;20048;-64
2022/12/19 02:46:11;;;;;;;61.10;22.88;;;0.00;70.60;;;;;;5034961;28;20037;-64
2022/12/19 02:48:37;;;;;;;68.57;25.83;;;-0.30;70.30;;;;;;5044973;28;20538;-63
2022/12/19 02:51:03;;;;;;;63.67;23.25;;;-0.30;70.30;;;;;;5045308;28;20056;-64
2022/12/19 02:53:29;;;;;;;66.18;24.77;;;-0.30;70.20;;;;;;5050270;28;20492;-64
2022/12/19 02:56:13;;;;;;;64.18;23.98;;;-0.30;70.10;;;;;;5041157;28;20044;-63
2022/12/19 02:59:00;;;;;;;64.38;25.77;;;-0.20;70.20;;;;;;5047939;28;20025;-64
2022/12/19 03:01:51;;;;;;;61.55;24.13;;;-0.20;70.20;;;;;;5039772;28;20442;-63
2022/12/19 03:04:35;;;;;;;64.25;23.92;;;-0.20;70.10;;;;;;5040891;28;20060;-62
2022/12/19 03:07:26;;;;;;;64.83;23.53;;;-0.20;70.10;;;;;;5033667;28;20086;-64
2022/12/19 03:10:17;;;;;;;68.97;27.30;;;-0.20;70.00;;;;;;5037321;28;20018;-62
2022/12/19 03:13:32;;;;;;;58.50;22.90;;;-0.30;69.80;;;;;;5045074;28;20272;-64
2022/12/19 03:15:58;;;;;;;;;;;-0.30;69.80;;;;;;4994591;28;20038;-63
2022/12/19 03:18:25;;;;;;;60.00;24.35;;;-0.10;70.20;;;;;;5004746;28;19920;-64
2022/12/19 03:21:14;;;;;;;54.28;22.15;;;-0.30;69.60;;;;;;5009556;28;20034;-64
2022/12/19 03:23:40;;;;;;;56.78;22.27;;;-0.40;69.80;;;;;;4991927;28;20031;-63
2022/12/19 03:26:20;;;;;;;64.05;23.38;;;-0.40;69.80;;;;;;4997975;28;20045;-63
2022/12/19 03:29:00;;;;;;;59.88;23.33;;;-0.40;70.00;;;;;;4987931;28;20023;-64
2022/12/19 03:31:28;;;;;;;57.00;22.60;;;-0.40;70.10;;;;;;5001437;28;20030;-63
2022/12/19 03:34:21;;;;;;;55.45;22.55;;;-0.40;70.20;;;;;;5000502;28;20041;-63
2022/12/19 03:36:52;;;;;;;52.13;20.50;;;-0.40;70.20;;;;;;4992234;28;20056;-64
2022/12/19 03:39:19;;;;;;;55.17;23.65;;;-0.40;70.20;;;;;;5004353;28;20034;-63
2022/12/19 03:44:34;;;;;;;53.92;21.75;;;-0.40;70.10;;;;;;5005984;28;20057;-64
2022/12/19 03:47:19;;;;;;;53.97;21.42;;;-0.40;70.10;;;;;;5038336;28;20048;-64
2022/12/19 03:49:46;;;;;;;62.03;24.77;;;-0.40;70.20;;;;;;5050126;28;20046;-63
2022/12/19 03:52:19;;;;;;;61.35;24.13;;;-0.30;70.30;;;;;;5036636;28;20040;-63
2022/12/19 03:55:13;;;;;;;51.55;22.52;;;-0.30;70.30;;;;;;5050194;28;20109;-63
2022/12/19 03:58:09;;;;;;;59.97;24.90;;;-0.30;70.40;;;;;;5035651;28;20033;-63
2022/12/19 04:00:39;;;;;;;54.70;22.48;;;-0.30;70.30;;;;;;5047146;28;20037;-63
2022/12/19 04:03:07;;;;;;;61.03;23.58;;;-0.30;70.20;;;;;;5035776;28;20033;-63
2022/12/19 04:05:34;;;;;;;59.88;23.70;;;-0.20;70.30;;;;;;5041379;28;20025;-63
2022/12/19 04:08:04;;;;;;;59.63;23.77;;;-0.30;70.30;;;;;;5040294;28;20045;-65
2022/12/19 04:10:35;;;;;;;62.25;24.60;;;-0.20;70.40;;;;;;5036199;28;20052;-64
2022/12/19 04:13:07;;;;;;;59.78;24.05;;;-0.20;70.40;;;;;;5042465;28;20025;-64
2022/12/19 04:16:19;;;;;;;59.72;24.02;;;0.00;70.50;;;;;;5050219;28;20523;-63
2022/12/19 04:18:52;;;;;;;59.40;24.63;;;-0.20;70.40;;;;;;4993422;28;20041;-63
2022/12/19 04:21:42;;;;;;;58.58;24.05;;;-0.20;70.30;;;;;;5022664;28;20492;-64
2022/12/19 04:24:16;;;;;;;60.92;22.83;;;-0.20;70.40;;;;;;5041229;28;20033;-63
2022/12/19 04:26:45;;;;;;;43.17;17.80;;;-0.10;70.30;;;;;;5021633;28;20064;-63
2022/12/19 04:29:13;;;;;;;63.40;23.55;;;-0.10;70.20;;;;;;5041095;28;20041;-63
2022/12/19 04:31:39;;;;;;;57.55;23.52;;;-0.10;70.30;;;;;;5035760;28;20171;-64
2022/12/19 04:34:04;;;;;;;59.10;23.77;;;0.00;70.40;;;;;;5035022;28;20511;-63
2022/12/19 04:36:30;;;;;;;58.75;23.45;;;-0.10;70.40;;;;;;5036683;28;20041;-63
2022/12/19 04:38:56;;;;;;;64.43;24.85;;;0.00;70.50;;;;;;5040071;28;20075;-63
2022/12/19 04:41:22;;;;;;;67.85;25.23;;;0.00;70.50;;;;;;5035214;28;20029;-63
2022/12/19 04:43:48;;;;;;;60.17;25.52;;;0.20;70.50;;;;;;5042569;28;20090;-63
2022/12/19 04:46:13;;;;;;;57.85;24.27;;;0.00;70.40;;;;;;5042500;28;20043;-63
2022/12/19 04:48:39;;;;;;;56.42;23.40;;;0.10;70.40;;;;;;5044368;28;20025;-63
2022/12/19 04:51:05;;;;;;;61.40;24.80;;;0.10;70.40;;;;;;5050489;28;20041;-63
2022/12/19 04:53:31;;;;;;;54.63;22.95;;;0.10;70.40;;;;;;5038667;28;20033;-63
2022/12/19 04:56:01;;;;;;;60.97;24.92;;;0.10;70.30;;;;;;5045497;28;20446;-63
2022/12/19 04:58:27;;;;;;;59.90;24.88;;;0.20;70.20;;;;;;5044549;28;20423;-63
2022/12/19 05:00:53;;;;;;;56.92;24.65;;;0.20;70.10;;;;;;5055314;28;20040;-63
2022/12/19 05:03:19;;;;;;;59.05;24.02;;;0.20;70.10;;;;;;5047501;28;20037;-62
2022/12/19 05:05:44;;;;;;;63.50;24.27;;;0.20;70.20;;;;;;5056332;28;20025;-63
2022/12/19 05:08:10;;;;;;;58.80;24.65;;;0.30;70.30;;;;;;5054507;28;20032;-63
2022/12/19 05:10:36;;;;;;;60.92;24.40;;;0.30;70.40;;;;;;5054798;28;20033;-63
2022/12/19 05:13:02;;;;;;;61.55;24.88;;;0.30;70.40;;;;;;5057907;28;20087;-63
2022/12/19 05:15:27;;;;;;;61.75;24.05;;;0.30;70.50;;;;;;5047752;28;20041;-63
2022/12/19 05:17:53;;;;;;;58.20;24.23;;;0.30;70.40;;;;;;5045538;28;20025;-63
2022/12/19 05:20:18;;;;;;;56.92;24.20;;;0.30;70.30;;;;;;5049437;28;20041;-62
2022/12/19 05:22:44;;;;;;;60.38;24.20;;;0.40;70.30;;;;;;5047465;28;20081;-63
2022/12/19 05:25:10;;;;;;;58.75;24.35;;;0.40;70.40;;;;;;5044766;28;20136;-63
2022/12/19 05:27:35;;;;;;;58.58;24.70;;;0.40;70.50;;;;;;5060650;28;20029;-63
2022/12/19 05:30:01;;;;;;;60.83;24.80;;;0.40;70.50;;;;;;5044042;28;20033;-63
2022/12/19 05:32:30;;;;;;;63.33;24.20;;;0.50;70.70;;;;;;5053537;28;20108;-63
2022/12/19 05:34:56;;;;;;;64.97;26.73;;;0.50;70.70;;;;;;5044781;28;20037;-63
2022/12/19 05:37:21;;;;;;;62.10;25.40;;;0.50;70.50;;;;;;5065442;28;20025;-63
2022/12/19 05:39:47;;;;;;;57.55;25.60;;;0.60;70.50;;;;;;5045846;28;20090;-64
2022/12/19 05:42:13;;;;;;;62.83;24.42;;;0.60;70.50;;;;;;5030959;28;20033;-63
2022/12/19 05:44:39;;;;;;;56.20;23.33;;;0.60;70.60;;;;;;5053094;28;20041;-63
2022/12/19 05:47:04;;;;;;;68.20;27.00;;;0.60;70.60;;;;;;5052371;28;20025;-63
2022/12/19 05:49:31;;;;;;;63.53;25.17;;;0.70;70.60;;;;;;5052458;28;20029;-62
2022/12/19 05:51:56;;;;;;;61.60;24.27;;;0.70;70.70;;;;;;5045814;28;20025;-63
2022/12/19 05:54:22;;;;;;;60.03;23.75;;;0.70;70.50;;;;;;5048820;28;20039;-64
2022/12/19 05:56:48;;;;;;;61.95;24.27;;;0.70;70.50;;;;;;5052217;28;20056;-62
2022/12/19 05:59:13;;;;;;;64.13;25.33;;;0.80;70.50;;;;;;5046615;28;20037;-63
2022/12/19 06:01:39;;;;;;;63.50;25.35;;;0.80;70.30;;;;;;5044851;28;20024;-62
2022/12/19 06:04:06;;;;;;;55.53;24.05;;;1.10;70.50;;;;;;5043995;28;20103;-64
2022/12/19 06:06:32;;;;;;;64.68;25.48;;;0.80;70.30;;;;;;5045304;28;20473;-63
2022/12/19 06:08:58;;;;;;;59.63;23.50;;;0.80;70.20;;;;;;5043905;28;20132;-65
2022/12/19 06:11:25;;;;;;;66.20;25.08;;;0.80;70.20;;;;;;5045792;28;20025;-64
2022/12/19 06:13:51;;;;;;;64.13;26.00;;;0.90;70.30;;;;;;5046206;28;20032;-64
2022/12/19 06:16:19;;;;;;;66.00;25.90;;;1.10;71.10;;;;;;5048185;28;20042;-64
2022/12/19 06:18:45;;;;;;;54.55;23.85;;;0.80;70.30;;;;;;4978598;28;20554;-63
2022/12/19 06:21:21;;;;;;;58.78;24.85;;;0.80;70.40;;;;;;5047434;28;20063;-64
2022/12/19 06:23:47;;;;;;;61.97;23.63;;;0.80;70.40;;;;;;5043954;28;20471;-64
2022/12/19 06:26:16;;;;;;;66.13;26.13;;;0.90;70.30;;;;;;5048676;28;20034;-64
2022/12/19 06:28:42;;;;;;;63.65;24.75;;;0.90;70.40;;;;;;5050502;28;20172;-64
2022/12/19 06:31:07;;;;;;;63.33;26.45;;;0.90;70.40;;;;;;5046683;28;20032;-64
2022/12/19 06:33:33;;;;;;;70.55;25.50;;;0.90;70.40;;;;;;5039355;28;20017;-64
2022/12/19 06:36:02;;;;;;;65.88;24.80;;;0.90;70.30;;;;;;5044021;28;20093;-64
2022/12/19 06:38:29;;;;;;;64.60;25.60;;;0.90;70.30;;;;;;5042302;28;20044;-64
2022/12/19 06:43:39;;;;;;;61.50;25.52;;;0.90;70.10;;;;;;5040965;28;20185;-65
2022/12/19 06:46:05;;;;;;;59.88;25.85;;;0.90;70.00;;;;;;5045626;28;20025;-64
2022/12/19 06:48:31;;;;;;;61.92;25.25;;;0.90;70.00;;;;;;5049084;28;20052;-65
2022/12/19 06:50:57;;;;;;;64.40;26.42;;;0.90;70.20;;;;;;5049077;28;20127;-65
2022/12/19 06:53:23;;;;;;;60.13;26.02;;;0.90;70.30;;;;;;5042013;28;20061;-64
2022/12/19 06:55:52;;;;;;;66.57;26.33;;;0.90;70.30;;;;;;5042357;28;20042;-64
2022/12/19 06:58:18;;;;;;;63.47;25.45;;;0.90;70.20;;;;;;5046462;28;20032;-64
2022/12/19 07:00:43;;;;;;;61.53;26.33;;;0.90;70.20;;;;;;5040102;28;20025;-64
2022/12/19 07:03:12;;;;;;;64.53;25.45;;;0.90;70.30;;;;;;5040550;28;20037;-64
2022/12/19 07:05:39;;;;;;;67.15;26.30;;;0.90;70.40;;;;;;5037760;28;20029;-64
2022/12/19 07:08:05;;;;;;;61.33;26.40;;;0.90;70.30;;;;;;5053392;28;20025;-64
2022/12/19 07:10:31;;;;;;;64.53;25.35;;;0.90;70.40;;;;;;5050091;28;20057;-65
2022/12/19 07:12:56;;;;;;;63.42;25.92;;;0.90;70.50;;;;;;5047193;28;20336;-63
2022/12/19 07:15:23;;;;;;;66.32;25.13;;;0.90;70.40;;;;;;5048612;28;20465;-64
2022/12/19 07:17:48;;;;;;;66.63;25.33;;;0.90;70.40;;;;;;5039927;28;20060;-64
2022/12/19 07:20:15;;;;;;;64.03;24.20;;;0.90;70.40;;;;;;4992863;28;20107;-64
2022/12/19 07:22:42;;;;;;;61.72;25.95;;;0.90;70.40;;;;;;5037243;28;20025;-64
2022/12/19 07:25:08;;;;;;;61.42;23.92;;;1.00;71.30;;;;;;5047740;28;20021;-64
2022/12/19 07:27:35;;;;;;;62.17;25.88;;;1.00;70.60;;;;;;5043688;28;20037;-64
2022/12/19 07:30:00;;;;;;;63.63;25.48;;;1.00;70.60;;;;;;5051112;28;20026;-64
2022/12/19 07:32:26;;;;;;;59.97;25.08;;;1.00;70.60;;;;;;5047449;28;20157;-64
2022/12/19 07:34:52;;;;;;;61.30;24.60;;;1.10;70.70;;;;;;5035874;28;21147;-63
2022/12/19 07:37:17;;;;;;;64.07;25.38;;;1.10;70.70;;;;;;5036012;28;20365;-64
2022/12/19 07:39:43;;;;;;;70.47;25.73;;;1.10;70.50;;;;;;5040015;28;20036;-64
2022/12/19 07:42:09;;;;;;;69.22;26.08;;;1.20;70.50;;;;;;5044888;28;20025;-64
2022/12/19 07:44:34;;;;;;;57.85;25.20;;;1.20;70.70;;;;;;5037570;28;20515;-64
2022/12/19 07:47:00;;;;;;;65.13;26.42;;;1.20;70.60;;;;;;5038900;28;20021;-64
2022/12/19 07:49:26;;;;;;;64.50;25.65;;;1.20;70.50;;;;;;5052522;28;20029;-64
2022/12/19 07:51:51;;;;;;;61.40;25.67;;;1.30;70.70;;;;;;5039966;28;20153;-65
2022/12/19 07:54:17;;;;;;;61.95;25.20;;;1.30;70.70;;;;;;5042126;28;20098;-64
2022/12/19 07:56:43;;;;;;;59.20;24.67;;;1.40;70.80;;;;;;5038679;28;20077;-65
2022/12/19 07:59:08;;;;;;;57.50;24.88;;;1.40;70.50;;;;;;5035209;28;20081;-64
2022/12/19 08:01:34;;;;;;;57.95;25.17;;;1.50;70.40;;;;;;5034633;28;20067;-64
2022/12/19 08:04:00;;;;;;;57.17;25.23;;;1.50;70.30;;;;;;5041668;28;20052;-65
2022/12/19 08:06:25;;;;;;;70.32;28.55;;;1.50;70.40;;;;;;5036954;28;20025;-64
2022/12/19 08:08:51;;;;;;;67.57;30.05;;;1.60;70.50;;;;;;5032126;28;20044;-65
2022/12/19 08:11:26;;;;;;;62.45;26.38;;;1.60;70.50;;;;;;5033270;28;20030;-65
2022/12/19 08:13:56;;;;;;;74.30;29.95;;;1.70;70.40;;;;;;5042939;28;20025;-65
2022/12/19 08:16:23;;;;;;;72.75;28.38;;;1.70;70.30;;;;;;5041958;28;20584;-63
2022/12/19 08:18:49;;;;;;;65.43;27.13;;;1.80;70.30;;;;;;5045213;28;20078;-65
2022/12/19 08:21:15;;;;;;;69.07;28.83;;;1.80;70.30;;;;;;5041115;28;20029;-65
2022/12/19 08:23:40;;;;;;;68.50;27.10;;;1.90;70.50;;;;;;5041638;28;20059;-65
2022/12/19 08:26:10;;;;;;;61.83;26.73;;;2.00;70.50;;;;;;5040019;28;20120;-64
2022/12/19 08:28:36;;;;;;;62.03;25.83;;;2.00;70.30;;;;;;5037060;28;20391;-64
2022/12/19 08:31:10;;;;;;;59.33;25.58;;;2.10;70.20;;;;;;5043543;28;20085;-64
2022/12/19 08:33:36;;;;;;;55.83;23.55;;;2.20;70.00;;;;;;5043083;28;20029;-63
2022/12/19 08:36:06;;;;;;;58.40;23.83;;;2.20;69.80;;;;;;5041075;28;20037;-63
2022/12/19 08:38:33;;;;;;;64.63;28.52;;;2.20;69.90;;;;;;5028351;28;20384;-64
2022/12/19 08:40:59;;;;;;;76.38;32.72;;;2.30;69.80;;;;;;5036886;28;20032;-63
2022/12/19 08:43:26;;;;;;;68.15;30.48;;;2.30;69.80;;;;;;5044332;28;20061;-65
2022/12/19 08:45:51;;;;;;;60.05;25.30;;;2.40;69.80;;;;;;5045963;28;20021;-65
2022/12/19 08:48:17;;;;;;;63.72;25.23;;;2.40;69.60;;;;;;5051383;28;20029;-65
2022/12/19 08:50:50;;;;;;;87.80;38.00;;;2.50;69.70;;;;;;5048280;28;21280;-65
2022/12/19 08:53:16;;;;;;;71.22;30.48;;;2.50;69.70;;;;;;5039988;28;20033;-65
2022/12/19 08:55:42;;;;;;;63.05;27.08;;;2.60;69.70;;;;;;5048523;28;20120;-65
2022/12/19 08:58:07;;;;;;;58.13;26.20;;;2.60;69.60;;;;;;5047714;28;20022;-65
2022/12/19 09:00:33;;;;;;;60.55;27.00;;;2.70;69.70;;;;;;5046735;28;20094;-64
2022/12/19 09:02:59;;;;;;;122.55;54.47;;;2.70;69.70;;;;;;5050784;28;20033;-65
2022/12/19 09:05:24;;;;;;;71.20;31.52;;;2.70;69.50;;;;;;5045214;28;20032;-65
2022/12/19 09:07:50;;;;;;;62.50;27.35;;;2.80;69.50;;;;;;5048422;28;20022;-64
2022/12/19 09:10:16;;;;;;;57.30;25.48;;;2.80;69.40;;;;;;5041070;28;20025;-65
2022/12/19 09:12:41;;;;;;;60.53;25.92;;;2.90;69.30;;;;;;5048325;28;20024;-65
2022/12/19 09:15:07;;;;;;;70.45;33.97;;;2.90;69.30;;;;;;5046741;28;20488;-65
2022/12/19 09:17:33;;;;;;;68.93;31.73;;;3.00;69.30;;;;;;5041583;28;20472;-63
2022/12/19 09:19:58;;;;;;;59.53;27.00;;;3.00;69.20;;;;;;5043273;28;20075;-66
2022/12/19 09:22:24;;;;;;;65.68;27.45;;;3.00;69.10;;;;;;5044116;28;20033;-64
2022/12/19 09:24:50;;;;;;;56.65;25.20;;;3.10;69.10;;;;;;5044758;28;20077;-65
2022/12/19 09:27:15;;;;;;;57.10;25.45;;;3.10;69.00;;;;;;5044642;28;20022;-64
2022/12/19 09:29:42;;;;;;;61.78;26.75;;;3.10;69.00;;;;;;5043708;28;20025;-64
2022/12/19 09:32:08;;;;;;;56.85;25.60;;;3.20;69.10;;;;;;5039109;28;20017;-64
2022/12/19 09:34:35;;;;;;;64.45;26.48;;;3.30;69.10;;;;;;5041863;28;20037;-66
2022/12/19 09:37:01;;;;;;;58.78;27.58;;;3.30;69.10;;;;;;5039984;28;20031;-65
2022/12/19 09:39:26;;;;;;;59.53;27.17;;;3.40;69.00;;;;;;5046299;28;20025;-65
2022/12/19 09:42:02;;;;;;;55.45;24.08;;;3.50;68.90;;;;;;5041394;28;20029;-65
2022/12/19 09:44:30;;;;;;;55.97;24.92;;;3.50;68.60;;;;;;5045672;28;20036;-65
2022/12/19 09:46:59;;;;;;;57.03;24.45;;;3.60;68.70;;;;;;5046363;28;20021;-65
2022/12/19 09:49:36;;;;;;;53.47;24.42;;;3.60;68.70;;;;;;5050615;28;20085;-63
2022/12/19 09:52:16;;;;;;;59.35;26.73;;;3.60;68.50;;;;;;5052611;28;20041;-65
2022/12/19 09:54:56;;;;;;;54.72;24.65;;;3.70;68.70;;;;;;5050892;28;20028;-63
2022/12/19 09:57:40;;;;;;;53.97;24.98;;;3.80;68.60;;;;;;5036309;28;20409;-64
2022/12/19 10:00:12;;;;;;;38.80;18.52;;;3.90;68.10;;;;;;5043055;28;20040;-66
2022/12/19 10:02:57;;;;;;;56.45;26.05;;;4.00;68.20;;;;;;5043115;28;20021;-65
2022/12/19 10:05:53;;;;;;;59.60;25.52;;;4.10;68.20;;;;;;5045994;28;20032;-65
2022/12/19 10:08:23;;;;;;;52.88;24.80;;;4.20;67.70;;;;;;5046483;28;20384;-64
2022/12/19 10:11:14;;;;;;;58.42;26.77;;;4.20;67.80;;;;;;5048833;28;20021;-63
2022/12/19 10:14:24;;;;;;;56.33;25.10;;;4.30;67.70;;;;;;5048858;28;20037;-64
2022/12/19 10:17:08;;;;;;;51.15;23.98;;;4.40;67.40;;;;;;5001355;28;20086;-64
2022/12/19 10:20:02;;;;;;;54.97;25.15;;;4.50;67.90;;;;;;5014663;28;20052;-63
2022/12/19 10:22:46;;;;;;;57.37;25.93;;;4.60;66.90;;;;;;4997333;28;20057;-64
2022/12/19 10:25:27;;;;;;;52.75;25.55;;;4.60;66.90;;;;;;5006366;28;20074;-64
2022/12/19 10:28:10;;;;;;;54.00;25.00;;;5.00;67.30;;;;;;5007989;28;20129;-63
2022/12/19 10:30:52;;;;;;;56.13;26.52;;;4.80;67.50;;;;;;4992949;28;20034;-64
2022/12/19 10:33:31;;;;;;;56.40;26.15;;;4.80;67.10;;;;;;5008607;28;20097;-64
2022/12/19 10:35:59;;;;;;;55.60;26.05;;;4.90;66.70;;;;;;5012409;28;20045;-63
2022/12/19 10:38:52;;;;;;;57.75;26.30;;;4.90;66.70;;;;;;4995187;28;20030;-64
2022/12/19 10:41:18;;;;;;;55.30;24.80;;;4.90;66.30;;;;;;5006847;28;20053;-64
2022/12/19 10:44:07;;;;;;;51.13;23.83;;;4.90;66.30;;;;;;4997544;28;20027;-64
2022/12/19 10:46:39;;;;;;;53.65;25.77;;;4.90;66.00;;;;;;4990582;28;20161;-62
2022/12/19 10:49:13;;;;;;;58.88;26.98;;;4.90;66.10;;;;;;5012031;28;20034;-64
2022/12/19 10:51:41;;;;;;;56.38;26.60;;;4.90;66.10;;;;;;4995486;28;20081;-64
2022/12/19 10:54:07;;;;;;;66.53;29.73;;;4.90;66.30;;;;;;5031357;28;20034;-64
2022/12/19 10:56:34;;;;;;;60.22;28.02;;;5.00;66.50;;;;;;5040191;28;20033;-66
2022/12/19 10:59:00;;;;;;;55.50;26.23;;;5.10;66.50;;;;;;5047138;28;20032;-64
2022/12/19 11:01:34;;;;;;;58.47;28.75;;;5.10;66.50;;;;;;5040750;28;20036;-64
2022/12/19 11:04:18;;;;;;;58.50;27.40;;;5.20;66.00;;;;;;5024992;28;20044;-63
2022/12/19 11:07:06;;;;;;;56.88;27.38;;;5.30;65.60;;;;;;5045157;28;20025;-64
2022/12/19 11:09:42;;;;;;;54.97;27.75;;;5.30;65.50;;;;;;5035949;28;20093;-63
2022/12/19 11:12:10;;;;;;;55.97;27.30;;;5.30;65.60;;;;;;5046001;28;20037;-63
2022/12/19 11:14:42;;;;;;;53.55;26.13;;;5.30;65.90;;;;;;5042511;28;20023;-62
2022/12/19 11:17:26;;;;;;;52.13;25.00;;;5.40;65.90;;;;;;5041486;28;20026;-64
2022/12/19 11:19:52;;;;;;;51.63;25.63;;;5.40;65.50;;;;;;5046441;28;20025;-65
2022/12/19 11:22:26;;;;;;;54.92;26.52;;;5.50;66.00;;;;;;5055516;28;20021;-66
2022/12/19 11:24:53;;;;;;;;;;;5.50;65.90;;;;;;5042085;28;20045;-65
2022/12/19 11:27:45;;;;;;;54.58;24.77;;;5.60;65.50;;;;;;5041239;28;20279;-66
2022/12/19 11:30:26;;;;;;;52.03;25.10;;;5.70;65.60;;;;;;5041160;28;20044;-66
2022/12/19 11:33:16;;;;;;;62.67;29.27;;;5.70;65.60;;;;;;5046934;28;20021;-65
2022/12/19 11:35:54;;;;;;;56.97;26.27;;;5.70;65.20;;;;;;5037702;28;20042;-65
2022/12/19 11:38:52;;;;;;;51.28;25.27;;;5.70;65.50;;;;;;5043702;28;20013;-65
2022/12/19 11:41:45;;;;;;;55.80;26.10;;;5.70;65.30;;;;;;5046536;28;20037;-64
2022/12/19 11:44:33;;;;;;;57.90;26.90;;;5.70;65.50;;;;;;5037364;28;20029;-63
2022/12/19 11:47:16;;;;;;;59.63;26.38;;;5.70;65.30;;;;;;5016877;28;20125;-64
2022/12/19 11:49:49;;;;;;;51.25;26.10;;;5.70;65.50;;;;;;5038362;28;20021;-64
2022/12/19 11:52:41;;;;;;;60.40;28.98;;;5.80;65.70;;;;;;5036647;28;20029;-64
2022/12/19 11:55:36;;;;;;;54.17;25.75;;;5.80;65.40;;;;;;5040820;28;20042;-66
2022/12/19 11:58:02;;;;;;;53.63;26.48;;;5.90;65.50;;;;;;5046300;28;20032;-66
2022/12/19 12:00:30;;;;;;;52.50;25.52;;;6.00;65.90;;;;;;5052402;28;20152;-65
2022/12/19 12:03:17;;;;;;;57.90;27.58;;;6.10;65.70;;;;;;5049229;28;20060;-66
2022/12/19 12:05:48;;;;;;;51.80;25.67;;;6.10;64.90;;;;;;5054906;28;20021;-64
2022/12/19 12:08:35;;;;;;;53.97;24.70;;;6.20;65.00;;;;;;5048805;28;20029;-64
2022/12/19 12:11:14;;;;;;;53.20;25.58;;;6.20;64.80;;;;;;5040134;28;20029;-65
2022/12/19 12:14:13;;;;;;;49.33;23.67;;;6.20;65.00;;;;;;5039889;28;20189;-65
2022/12/19 12:16:46;;;;;;;49.15;24.80;;;6.20;64.60;;;;;;5045264;28;20041;-65
2022/12/19 12:19:23;;;;;;;53.33;25.95;;;6.30;65.00;;;;;;5047189;28;20143;-65
2022/12/19 12:21:55;;;;;;;48.42;24.85;;;6.30;64.60;;;;;;5046620;28;20351;-65
2022/12/19 12:24:39;;;;;;;55.03;26.10;;;6.30;64.60;;;;;;5046774;28;20013;-64
2022/12/19 12:27:26;;;;;;;52.85;25.02;;;6.30;64.50;;;;;;5047102;28;20031;-65
2022/12/19 12:30:12;;;;;;;57.47;28.60;;;6.30;64.50;;;;;;5050867;28;20105;-64
2022/12/19 12:32:56;;;;;;;59.13;26.83;;;6.30;64.70;;;;;;5040965;28;20480;-63
2022/12/19 12:35:36;;;;;;;57.97;26.25;;;6.30;64.50;;;;;;5048553;28;20043;-65
2022/12/19 12:38:25;;;;;;;52.22;26.52;;;6.30;64.90;;;;;;5043420;28;20021;-65
2022/12/19 12:41:11;;;;;;;54.78;27.30;;;6.30;64.70;;;;;;5033744;28;20032;-65
2022/12/19 12:43:52;;;;;;;58.60;26.45;;;6.30;64.90;;;;;;5037170;28;20100;-65
2022/12/19 12:46:37;;;;;;;54.25;25.90;;;6.30;64.40;;;;;;5041845;28;20026;-64
2022/12/19 12:49:07;;;;;;;50.80;24.65;;;6.30;64.30;;;;;;5035908;28;20022;-65
2022/12/19 12:51:34;;;;;;;57.45;25.95;;;6.30;64.60;;;;;;5034026;28;20042;-64
2022/12/19 12:54:06;;;;;;;63.22;26.92;;;6.20;64.60;;;;;;5049435;28;20033;-64
2022/12/19 12:56:33;;;;;;;54.95;26.33;;;6.20;64.50;;;;;;5039601;28;20033;-64
2022/12/19 12:59:06;;;;;;;55.90;26.60;;;6.20;64.80;;;;;;5050631;28;20029;-65
2022/12/19 13:01:35;;;;;;;58.40;27.42;;;6.10;64.70;;;;;;5047820;28;20026;-64
2022/12/19 13:04:06;;;;;;;59.65;27.25;;;6.20;65.00;;;;;;5043560;28;20025;-64